sensor_id;sensor_type;location;lat;lon;timestamp;P1;durP1;ratioP1;P2;durP2;ratioP2
32292;SDS011;43233;48.608;8.838;2022-11-12T00:00:45;33.73;;;9.97;;
32292;SDS011;43233;48.608;8.838;2022-11-12T00:03:12;176.07;;;12.87;;
32292;SDS011;43233;48.608;8.838;2022-11-12T00:05:38;35.53;;;6.40;;
32292;SDS011;43233;48.608;8.838;2022-11-12T00:08:03;154.33;;;10.47;;
32292;SDS011;43233;48.608;8.838;2022-11-12T00:10:29;27.13;;;6.10;;
32292;SDS011;43233;48.608;8.838;2022-11-12T00:12:56;11.77;;;5.57;;
32292;SDS011;43233;48.608;8.838;2022-11-12T00:15:22;79.53;;;8.40;;
32292;SDS011;43233;48.608;8.838;2022-11-12T00:17:47;6.23;;;5.63;;
32292;SDS011;43233;48.608;8.838;2022-11-12T00:20:13;19.20;;;8.50;;
32292;SDS011;43233;48.608;8.838;2022-11-12T00:22:39;35.17;;;10.40;;
32292;SDS011;43233;48.608;8.838;2022-11-12T00:25:05;10.30;;;8.97;;
32292;SDS011;43233;48.608;8.838;2022-11-12T00:27:31;10.50;;;8.20;;
32292;SDS011;43233;48.608;8.838;2022-11-12T00:29:57;8.77;;;7.87;;
32292;SDS011;43233;48.608;8.838;2022-11-12T00:32:23;20.83;;;9.13;;
32292;SDS011;43233;48.608;8.838;2022-11-12T00:34:48;32.53;;;6.93;;
32292;SDS011;43233;48.608;8.838;2022-11-12T00:37:14;6.53;;;5.90;;
32292;SDS011;43233;48.608;8.838;2022-11-12T00:39:40;7.33;;;6.60;;
32292;SDS011;43233;48.608;8.838;2022-11-12T00:42:06;8.80;;;7.60;;
32292;SDS011;43233;48.608;8.838;2022-11-12T00:44:32;14.40;;;7.50;;
32292;SDS011;43233;48.608;8.838;2022-11-12T00:46:58;10.37;;;6.93;;
32292;SDS011;43233;48.608;8.838;2022-11-12T00:49:24;6.40;;;5.80;;
32292;SDS011;43233;48.608;8.838;2022-11-12T00:51:50;32.20;;;7.40;;
32292;SDS011;43233;48.608;8.838;2022-11-12T00:54:15;9.10;;;6.73;;
32292;SDS011;43233;48.608;8.838;2022-11-12T00:56:41;9.47;;;6.83;;
32292;SDS011;43233;48.608;8.838;2022-11-12T00:59:07;5.93;;;5.33;;
32292;SDS011;43233;48.608;8.838;2022-11-12T01:01:33;6.13;;;5.63;;
32292;SDS011;43233;48.608;8.838;2022-11-12T01:03:59;9.33;;;4.53;;
32292;SDS011;43233;48.608;8.838;2022-11-12T01:06:24;4.80;;;4.40;;
32292;SDS011;43233;48.608;8.838;2022-11-12T01:08:51;4.60;;;4.27;;
32292;SDS011;43233;48.608;8.838;2022-11-12T01:11:20;10.10;;;8.10;;
32292;SDS011;43233;48.608;8.838;2022-11-12T01:13:51;11.20;;;8.20;;
32292;SDS011;43233;48.608;8.838;2022-11-12T01:16:21;12.80;;;8.87;;
32292;SDS011;43233;48.608;8.838;2022-11-12T01:18:52;8.73;;;7.10;;
32292;SDS011;43233;48.608;8.838;2022-11-12T01:21:19;7.00;;;5.57;;
32292;SDS011;43233;48.608;8.838;2022-11-12T01:23:46;4.60;;;4.20;;
32292;SDS011;43233;48.608;8.838;2022-11-12T01:26:13;6.10;;;5.50;;
32292;SDS011;43233;48.608;8.838;2022-11-12T01:28:40;5.53;;;5.03;;
32292;SDS011;43233;48.608;8.838;2022-11-12T01:33:35;5.30;;;4.40;;
32292;SDS011;43233;48.608;8.838;2022-11-12T01:36:01;4.07;;;3.77;;
32292;SDS011;43233;48.608;8.838;2022-11-12T01:38:26;4.40;;;4.03;;
32292;SDS011;43233;48.608;8.838;2022-11-12T01:40:52;5.90;;;5.30;;
32292;SDS011;43233;48.608;8.838;2022-11-12T01:43:17;4.43;;;4.03;;
32292;SDS011;43233;48.608;8.838;2022-11-12T01:45:44;13.03;;;4.10;;
32292;SDS011;43233;48.608;8.838;2022-11-12T01:48:24;5.30;;;4.90;;
32292;SDS011;43233;48.608;8.838;2022-11-12T01:50:53;4.63;;;4.23;;
32292;SDS011;43233;48.608;8.838;2022-11-12T01:53:20;4.27;;;3.97;;
32292;SDS011;43233;48.608;8.838;2022-11-12T01:55:49;4.50;;;4.20;;
32292;SDS011;43233;48.608;8.838;2022-11-12T01:58:17;4.73;;;4.33;;
32292;SDS011;43233;48.608;8.838;2022-11-12T02:00:45;4.10;;;3.80;;
32292;SDS011;43233;48.608;8.838;2022-11-12T02:03:14;4.40;;;4.10;;
32292;SDS011;43233;48.608;8.838;2022-11-12T02:05:47;4.40;;;4.10;;
32292;SDS011;43233;48.608;8.838;2022-11-12T02:08:15;5.03;;;4.13;;
32292;SDS011;43233;48.608;8.838;2022-11-12T02:10:41;4.20;;;3.90;;
32292;SDS011;43233;48.608;8.838;2022-11-12T02:13:07;5.10;;;4.70;;
32292;SDS011;43233;48.608;8.838;2022-11-12T02:15:51;6.13;;;4.63;;
32292;SDS011;43233;48.608;8.838;2022-11-12T02:18:17;9.00;;;4.40;;
32292;SDS011;43233;48.608;8.838;2022-11-12T02:20:43;4.40;;;4.10;;
32292;SDS011;43233;48.608;8.838;2022-11-12T02:23:08;55.60;;;5.20;;
32292;SDS011;43233;48.608;8.838;2022-11-12T02:25:34;3.60;;;3.33;;
32292;SDS011;43233;48.608;8.838;2022-11-12T02:28:01;3.43;;;3.23;;
32292;SDS011;43233;48.608;8.838;2022-11-12T02:30:35;17.77;;;5.07;;
32292;SDS011;43233;48.608;8.838;2022-11-12T02:33:00;61.00;;;5.80;;
32292;SDS011;43233;48.608;8.838;2022-11-12T02:35:27;292.20;;;13.33;;
32292;SDS011;43233;48.608;8.838;2022-11-12T02:37:53;97.47;;;6.40;;
32292;SDS011;43233;48.608;8.838;2022-11-12T02:40:19;397.53;;;13.73;;
32292;SDS011;43233;48.608;8.838;2022-11-12T02:42:44;8.40;;;4.53;;
32292;SDS011;43233;48.608;8.838;2022-11-12T02:45:10;4.70;;;4.17;;
32292;SDS011;43233;48.608;8.838;2022-11-12T02:47:35;145.23;;;7.07;;
32292;SDS011;43233;48.608;8.838;2022-11-12T02:50:01;67.00;;;6.20;;
32292;SDS011;43233;48.608;8.838;2022-11-12T02:52:27;22.23;;;4.37;;
32292;SDS011;43233;48.608;8.838;2022-11-12T02:54:53;12.03;;;3.80;;
32292;SDS011;43233;48.608;8.838;2022-11-12T02:57:18;21.30;;;4.13;;
32292;SDS011;43233;48.608;8.838;2022-11-12T02:59:44;18.57;;;4.60;;
32292;SDS011;43233;48.608;8.838;2022-11-12T03:02:10;46.50;;;4.40;;
32292;SDS011;43233;48.608;8.838;2022-11-12T03:04:35;4.00;;;3.70;;
32292;SDS011;43233;48.608;8.838;2022-11-12T03:07:01;3.50;;;3.23;;
32292;SDS011;43233;48.608;8.838;2022-11-12T03:09:26;3.67;;;3.47;;
32292;SDS011;43233;48.608;8.838;2022-11-12T03:11:52;17.27;;;4.20;;
32292;SDS011;43233;48.608;8.838;2022-11-12T03:14:18;8.17;;;3.23;;
32292;SDS011;43233;48.608;8.838;2022-11-12T03:16:43;3.67;;;3.47;;
32292;SDS011;43233;48.608;8.838;2022-11-12T03:19:09;3.50;;;3.30;;
32292;SDS011;43233;48.608;8.838;2022-11-12T03:21:36;3.43;;;3.23;;
32292;SDS011;43233;48.608;8.838;2022-11-12T03:24:01;7.07;;;6.13;;
32292;SDS011;43233;48.608;8.838;2022-11-12T03:26:27;5.10;;;4.70;;
32292;SDS011;43233;48.608;8.838;2022-11-12T03:28:53;4.17;;;3.80;;
32292;SDS011;43233;48.608;8.838;2022-11-12T03:31:18;4.53;;;4.10;;
32292;SDS011;43233;48.608;8.838;2022-11-12T03:33:44;4.63;;;3.90;;
32292;SDS011;43233;48.608;8.838;2022-11-12T03:36:10;4.80;;;4.30;;
32292;SDS011;43233;48.608;8.838;2022-11-12T03:38:36;12.93;;;4.23;;
32292;SDS011;43233;48.608;8.838;2022-11-12T03:41:02;39.43;;;4.33;;
32292;SDS011;43233;48.608;8.838;2022-11-12T03:43:27;6.30;;;4.57;;
32292;SDS011;43233;48.608;8.838;2022-11-12T03:45:53;5.93;;;4.50;;
32292;SDS011;43233;48.608;8.838;2022-11-12T03:48:19;19.83;;;3.90;;
32292;SDS011;43233;48.608;8.838;2022-11-12T03:50:44;4.10;;;3.80;;
32292;SDS011;43233;48.608;8.838;2022-11-12T03:53:10;6.10;;;3.47;;
32292;SDS011;43233;48.608;8.838;2022-11-12T03:55:36;4.07;;;3.73;;
32292;SDS011;43233;48.608;8.838;2022-11-12T03:58:01;6.10;;;5.60;;
32292;SDS011;43233;48.608;8.838;2022-11-12T04:00:27;4.73;;;4.37;;
32292;SDS011;43233;48.608;8.838;2022-11-12T04:02:54;4.27;;;3.97;;
32292;SDS011;43233;48.608;8.838;2022-11-12T04:05:20;16.03;;;3.63;;
32292;SDS011;43233;48.608;8.838;2022-11-12T04:10:58;4.00;;;3.70;;
32292;SDS011;43233;48.608;8.838;2022-11-12T04:13:24;3.60;;;3.37;;
32292;SDS011;43233;48.608;8.838;2022-11-12T04:18:52;13.20;;;4.13;;
32292;SDS011;43233;48.608;8.838;2022-11-12T04:21:41;4.10;;;3.80;;
32292;SDS011;43233;48.608;8.838;2022-11-12T04:24:19;3.40;;;3.10;;
32292;SDS011;43233;48.608;8.838;2022-11-12T04:27:20;3.43;;;3.23;;
32292;SDS011;43233;48.608;8.838;2022-11-12T04:29:47;4.13;;;3.77;;
32292;SDS011;43233;48.608;8.838;2022-11-12T04:32:33;3.53;;;3.23;;
32292;SDS011;43233;48.608;8.838;2022-11-12T04:35:00;4.13;;;3.73;;
32292;SDS011;43233;48.608;8.838;2022-11-12T04:37:27;4.70;;;3.63;;
32292;SDS011;43233;48.608;8.838;2022-11-12T04:40:08;4.60;;;4.23;;
32292;SDS011;43233;48.608;8.838;2022-11-12T04:43:07;4.50;;;4.10;;
32292;SDS011;43233;48.608;8.838;2022-11-12T04:45:52;7.80;;;5.93;;
32292;SDS011;43233;48.608;8.838;2022-11-12T04:48:19;5.50;;;5.00;;
32292;SDS011;43233;48.608;8.838;2022-11-12T04:50:47;9.90;;;3.97;;
32292;SDS011;43233;48.608;8.838;2022-11-12T04:53:16;4.83;;;3.90;;
32292;SDS011;43233;48.608;8.838;2022-11-12T04:55:42;4.13;;;3.80;;
32292;SDS011;43233;48.608;8.838;2022-11-12T04:58:08;5.03;;;4.63;;
32292;SDS011;43233;48.608;8.838;2022-11-12T05:00:33;3.80;;;3.50;;
32292;SDS011;43233;48.608;8.838;2022-11-12T05:02:59;3.90;;;3.60;;
32292;SDS011;43233;48.608;8.838;2022-11-12T05:05:25;4.07;;;3.70;;
32292;SDS011;43233;48.608;8.838;2022-11-12T05:07:50;7.13;;;4.70;;
32292;SDS011;43233;48.608;8.838;2022-11-12T05:10:16;5.07;;;4.67;;
32292;SDS011;43233;48.608;8.838;2022-11-12T05:12:42;3.80;;;3.50;;
32292;SDS011;43233;48.608;8.838;2022-11-12T05:15:08;4.00;;;3.70;;
32292;SDS011;43233;48.608;8.838;2022-11-12T05:17:35;4.80;;;4.40;;
32292;SDS011;43233;48.608;8.838;2022-11-12T05:20:05;5.77;;;4.20;;
32292;SDS011;43233;48.608;8.838;2022-11-12T05:22:32;3.83;;;3.63;;
32292;SDS011;43233;48.608;8.838;2022-11-12T05:24:58;4.40;;;3.90;;
32292;SDS011;43233;48.608;8.838;2022-11-12T05:27:23;3.67;;;3.47;;
32292;SDS011;43233;48.608;8.838;2022-11-12T05:29:49;4.83;;;4.53;;
32292;SDS011;43233;48.608;8.838;2022-11-12T05:32:14;4.30;;;3.90;;
32292;SDS011;43233;48.608;8.838;2022-11-12T05:34:41;4.67;;;4.20;;
32292;SDS011;43233;48.608;8.838;2022-11-12T05:37:07;4.73;;;4.30;;
32292;SDS011;43233;48.608;8.838;2022-11-12T05:39:33;4.40;;;4.00;;
32292;SDS011;43233;48.608;8.838;2022-11-12T05:41:59;4.33;;;4.03;;
32292;SDS011;43233;48.608;8.838;2022-11-12T05:44:24;5.40;;;4.20;;
32292;SDS011;43233;48.608;8.838;2022-11-12T05:46:50;4.27;;;3.87;;
32292;SDS011;43233;48.608;8.838;2022-11-12T05:49:16;4.80;;;4.40;;
32292;SDS011;43233;48.608;8.838;2022-11-12T05:51:42;5.03;;;4.63;;
32292;SDS011;43233;48.608;8.838;2022-11-12T05:54:08;4.27;;;3.93;;
32292;SDS011;43233;48.608;8.838;2022-11-12T05:56:35;5.03;;;4.53;;
32292;SDS011;43233;48.608;8.838;2022-11-12T05:59:01;3.83;;;3.53;;
32292;SDS011;43233;48.608;8.838;2022-11-12T06:01:28;3.83;;;3.53;;
32292;SDS011;43233;48.608;8.838;2022-11-12T06:03:55;3.63;;;3.40;;
32292;SDS011;43233;48.608;8.838;2022-11-12T06:06:21;3.90;;;3.60;;
32292;SDS011;43233;48.608;8.838;2022-11-12T06:08:47;4.27;;;3.97;;
32292;SDS011;43233;48.608;8.838;2022-11-12T06:11:13;5.23;;;4.40;;
32292;SDS011;43233;48.608;8.838;2022-11-12T06:13:38;4.00;;;3.70;;
32292;SDS011;43233;48.608;8.838;2022-11-12T06:16:04;4.50;;;4.20;;
32292;SDS011;43233;48.608;8.838;2022-11-12T06:18:30;4.50;;;3.93;;
32292;SDS011;43233;48.608;8.838;2022-11-12T06:21:03;4.97;;;4.40;;
32292;SDS011;43233;48.608;8.838;2022-11-12T06:23:44;5.70;;;4.97;;
32292;SDS011;43233;48.608;8.838;2022-11-12T06:26:11;5.40;;;4.90;;
32292;SDS011;43233;48.608;8.838;2022-11-12T06:28:36;5.20;;;4.73;;
32292;SDS011;43233;48.608;8.838;2022-11-12T06:31:02;6.77;;;5.00;;
32292;SDS011;43233;48.608;8.838;2022-11-12T06:33:28;4.77;;;4.47;;
32292;SDS011;43233;48.608;8.838;2022-11-12T06:35:57;5.33;;;4.83;;
32292;SDS011;43233;48.608;8.838;2022-11-12T06:38:26;5.90;;;4.50;;
32292;SDS011;43233;48.608;8.838;2022-11-12T06:40:56;5.13;;;4.40;;
32292;SDS011;43233;48.608;8.838;2022-11-12T06:43:22;4.50;;;4.20;;
32292;SDS011;43233;48.608;8.838;2022-11-12T06:45:49;4.17;;;3.87;;
32292;SDS011;43233;48.608;8.838;2022-11-12T06:48:14;4.20;;;3.90;;
32292;SDS011;43233;48.608;8.838;2022-11-12T06:50:40;4.33;;;3.93;;
32292;SDS011;43233;48.608;8.838;2022-11-12T06:53:05;4.80;;;4.40;;
32292;SDS011;43233;48.608;8.838;2022-11-12T06:55:31;3.70;;;3.50;;
32292;SDS011;43233;48.608;8.838;2022-11-12T06:57:56;4.70;;;4.33;;
32292;SDS011;43233;48.608;8.838;2022-11-12T07:00:22;4.63;;;4.17;;
32292;SDS011;43233;48.608;8.838;2022-11-12T07:02:48;4.60;;;4.30;;
32292;SDS011;43233;48.608;8.838;2022-11-12T07:05:13;4.67;;;4.30;;
32292;SDS011;43233;48.608;8.838;2022-11-12T07:07:39;4.87;;;4.47;;
32292;SDS011;43233;48.608;8.838;2022-11-12T07:10:05;4.50;;;4.10;;
32292;SDS011;43233;48.608;8.838;2022-11-12T07:12:31;5.50;;;5.00;;
32292;SDS011;43233;48.608;8.838;2022-11-12T07:14:57;4.33;;;4.03;;
32292;SDS011;43233;48.608;8.838;2022-11-12T07:17:22;5.00;;;4.60;;
32292;SDS011;43233;48.608;8.838;2022-11-12T07:19:48;5.27;;;4.90;;
32292;SDS011;43233;48.608;8.838;2022-11-12T07:22:13;5.83;;;4.87;;
32292;SDS011;43233;48.608;8.838;2022-11-12T07:24:39;5.10;;;4.60;;
32292;SDS011;43233;48.608;8.838;2022-11-12T07:27:04;4.67;;;4.27;;
32292;SDS011;43233;48.608;8.838;2022-11-12T07:29:30;4.67;;;4.27;;
32292;SDS011;43233;48.608;8.838;2022-11-12T07:31:55;6.90;;;5.10;;
32292;SDS011;43233;48.608;8.838;2022-11-12T07:34:21;5.30;;;4.80;;
32292;SDS011;43233;48.608;8.838;2022-11-12T07:36:47;8.83;;;4.20;;
32292;SDS011;43233;48.608;8.838;2022-11-12T07:39:15;5.50;;;5.00;;
32292;SDS011;43233;48.608;8.838;2022-11-12T07:41:41;4.70;;;4.30;;
32292;SDS011;43233;48.608;8.838;2022-11-12T07:44:06;5.00;;;4.50;;
32292;SDS011;43233;48.608;8.838;2022-11-12T07:46:32;5.53;;;5.03;;
32292;SDS011;43233;48.608;8.838;2022-11-12T07:48:58;7.73;;;6.57;;
32292;SDS011;43233;48.608;8.838;2022-11-12T07:51:24;5.53;;;5.03;;
32292;SDS011;43233;48.608;8.838;2022-11-12T07:53:52;6.80;;;5.87;;
32292;SDS011;43233;48.608;8.838;2022-11-12T07:56:19;6.23;;;5.60;;
32292;SDS011;43233;48.608;8.838;2022-11-12T07:58:46;5.30;;;4.80;;
32292;SDS011;43233;48.608;8.838;2022-11-12T08:03:46;11.23;;;4.73;;
32292;SDS011;43233;48.608;8.838;2022-11-12T08:06:12;36.03;;;5.93;;
32292;SDS011;43233;48.608;8.838;2022-11-12T08:08:37;5.50;;;5.00;;
32292;SDS011;43233;48.608;8.838;2022-11-12T08:11:03;6.30;;;4.40;;
32292;SDS011;43233;48.608;8.838;2022-11-12T08:13:29;5.60;;;3.83;;
32292;SDS011;43233;48.608;8.838;2022-11-12T08:15:57;33.73;;;3.77;;
32292;SDS011;43233;48.608;8.838;2022-11-12T08:18:23;6.30;;;5.07;;
32292;SDS011;43233;48.608;8.838;2022-11-12T08:20:50;4.53;;;4.13;;
32292;SDS011;43233;48.608;8.838;2022-11-12T08:23:15;5.90;;;5.00;;
32292;SDS011;43233;48.608;8.838;2022-11-12T08:25:41;7.53;;;5.50;;
32292;SDS011;43233;48.608;8.838;2022-11-12T08:28:08;25.07;;;5.00;;
32292;SDS011;43233;48.608;8.838;2022-11-12T08:30:34;4.00;;;3.70;;
32292;SDS011;43233;48.608;8.838;2022-11-12T08:33:03;11.17;;;4.53;;
32292;SDS011;43233;48.608;8.838;2022-11-12T08:35:30;7.50;;;4.47;;
32292;SDS011;43233;48.608;8.838;2022-11-12T08:37:57;5.27;;;4.77;;
32292;SDS011;43233;48.608;8.838;2022-11-12T08:40:24;35.73;;;6.20;;
32292;SDS011;43233;48.608;8.838;2022-11-12T08:43:00;13.93;;;4.67;;
32292;SDS011;43233;48.608;8.838;2022-11-12T08:45:36;96.10;;;7.00;;
32292;SDS011;43233;48.608;8.838;2022-11-12T08:48:05;4.40;;;4.00;;
32292;SDS011;43233;48.608;8.838;2022-11-12T08:50:33;11.20;;;4.40;;
32292;SDS011;43233;48.608;8.838;2022-11-12T08:53:03;71.40;;;7.30;;
32292;SDS011;43233;48.608;8.838;2022-11-12T08:55:30;4.70;;;4.20;;
32292;SDS011;43233;48.608;8.838;2022-11-12T08:57:59;14.43;;;5.57;;
32292;SDS011;43233;48.608;8.838;2022-11-12T09:00:28;138.40;;;9.70;;
32292;SDS011;43233;48.608;8.838;2022-11-12T09:03:00;52.63;;;5.53;;
32292;SDS011;43233;48.608;8.838;2022-11-12T09:05:27;98.77;;;6.87;;
32292;SDS011;43233;48.608;8.838;2022-11-12T09:10:26;9.00;;;3.90;;
32292;SDS011;43233;48.608;8.838;2022-11-12T09:12:53;5.97;;;4.00;;
32292;SDS011;43233;48.608;8.838;2022-11-12T09:15:19;4.50;;;4.10;;
32292;SDS011;43233;48.608;8.838;2022-11-12T09:17:45;6.07;;;4.43;;
32292;SDS011;43233;48.608;8.838;2022-11-12T09:20:10;4.83;;;4.40;;
32292;SDS011;43233;48.608;8.838;2022-11-12T09:22:36;121.70;;;7.57;;
32292;SDS011;43233;48.608;8.838;2022-11-12T09:25:02;5.93;;;5.33;;
32292;SDS011;43233;48.608;8.838;2022-11-12T09:27:28;31.60;;;6.53;;
32292;SDS011;43233;48.608;8.838;2022-11-12T09:29:53;6.30;;;5.20;;
32292;SDS011;43233;48.608;8.838;2022-11-12T09:32:20;101.33;;;7.30;;
32292;SDS011;43233;48.608;8.838;2022-11-12T09:34:45;33.33;;;6.63;;
32292;SDS011;43233;48.608;8.838;2022-11-12T09:37:11;60.03;;;6.90;;
32292;SDS011;43233;48.608;8.838;2022-11-12T09:39:36;6.17;;;5.57;;
32292;SDS011;43233;48.608;8.838;2022-11-12T09:42:05;5.90;;;4.97;;
32292;SDS011;43233;48.608;8.838;2022-11-12T09:44:33;5.43;;;5.03;;
32292;SDS011;43233;48.608;8.838;2022-11-12T09:47:03;72.67;;;7.73;;
32292;SDS011;43233;48.608;8.838;2022-11-12T09:49:40;7.20;;;6.50;;
32292;SDS011;43233;48.608;8.838;2022-11-12T09:52:22;8.67;;;6.77;;
32292;SDS011;43233;48.608;8.838;2022-11-12T09:54:56;128.00;;;10.37;;
32292;SDS011;43233;48.608;8.838;2022-11-12T09:57:37;24.50;;;12.60;;
32292;SDS011;43233;48.608;8.838;2022-11-12T10:00:09;29.33;;;11.00;;
32292;SDS011;43233;48.608;8.838;2022-11-12T10:02:41;11.13;;;8.63;;
32292;SDS011;43233;48.608;8.838;2022-11-12T10:05:32;10.50;;;7.30;;
32292;SDS011;43233;48.608;8.838;2022-11-12T10:10:45;7.93;;;6.00;;
32292;SDS011;43233;48.608;8.838;2022-11-12T10:13:29;8.53;;;7.47;;
32292;SDS011;43233;48.608;8.838;2022-11-12T10:19:21;10.40;;;6.90;;
32292;SDS011;43233;48.608;8.838;2022-11-12T10:24:50;9.20;;;7.47;;
32292;SDS011;43233;48.608;8.838;2022-11-12T10:27:23;9.10;;;7.80;;
32292;SDS011;43233;48.608;8.838;2022-11-12T10:29:59;9.50;;;6.90;;
32292;SDS011;43233;48.608;8.838;2022-11-12T10:32:27;8.47;;;7.60;;
32292;SDS011;43233;48.608;8.838;2022-11-12T10:34:53;6.93;;;6.27;;
32292;SDS011;43233;48.608;8.838;2022-11-12T10:37:32;8.50;;;6.10;;
32292;SDS011;43233;48.608;8.838;2022-11-12T10:40:31;6.60;;;6.00;;
32292;SDS011;43233;48.608;8.838;2022-11-12T10:43:00;7.00;;;6.30;;
32292;SDS011;43233;48.608;8.838;2022-11-12T10:45:45;6.27;;;5.67;;
32292;SDS011;43233;48.608;8.838;2022-11-12T10:48:22;5.80;;;5.30;;
32292;SDS011;43233;48.608;8.838;2022-11-12T10:50:51;7.93;;;5.40;;
32292;SDS011;43233;48.608;8.838;2022-11-12T10:56:00;7.23;;;5.93;;
32292;SDS011;43233;48.608;8.838;2022-11-12T10:58:28;6.17;;;5.30;;
32292;SDS011;43233;48.608;8.838;2022-11-12T11:03:30;7.07;;;5.87;;
32292;SDS011;43233;48.608;8.838;2022-11-12T11:06:00;7.27;;;6.27;;
32292;SDS011;43233;48.608;8.838;2022-11-12T11:08:31;5.00;;;4.50;;
32292;SDS011;43233;48.608;8.838;2022-11-12T11:11:18;6.20;;;5.60;;
32292;SDS011;43233;48.608;8.838;2022-11-12T11:13:49;9.80;;;6.83;;
32292;SDS011;43233;48.608;8.838;2022-11-12T11:16:27;6.40;;;5.73;;
32292;SDS011;43233;48.608;8.838;2022-11-12T11:32:20;5.47;;;4.97;;
32292;SDS011;43233;48.608;8.838;2022-11-12T11:44:14;3.43;;;3.20;;
32292;SDS011;43233;48.608;8.838;2022-11-12T11:46:37;4.67;;;4.13;;
32292;SDS011;43233;48.608;8.838;2022-11-12T11:57:54;5.23;;;4.03;;
32292;SDS011;43233;48.608;8.838;2022-11-12T12:00:23;5.10;;;4.60;;
32292;SDS011;43233;48.608;8.838;2022-11-12T12:05:38;7.80;;;5.27;;
32292;SDS011;43233;48.608;8.838;2022-11-12T12:16:37;5.33;;;4.83;;
32292;SDS011;43233;48.608;8.838;2022-11-12T12:21:46;4.97;;;3.80;;
32292;SDS011;43233;48.608;8.838;2022-11-12T12:24:15;4.20;;;3.80;;
32292;SDS011;43233;48.608;8.838;2022-11-12T12:26:49;8.23;;;4.20;;
32292;SDS011;43233;48.608;8.838;2022-11-12T12:32:09;5.37;;;4.87;;
32292;SDS011;43233;48.608;8.838;2022-11-12T12:34:41;4.70;;;4.20;;
32292;SDS011;43233;48.608;8.838;2022-11-12T12:37:20;4.90;;;4.40;;
32292;SDS011;43233;48.608;8.838;2022-11-12T12:42:56;5.70;;;4.40;;
32292;SDS011;43233;48.608;8.838;2022-11-12T12:48:14;4.13;;;3.70;;
32292;SDS011;43233;48.608;8.838;2022-11-12T12:50:55;4.40;;;4.00;;
32292;SDS011;43233;48.608;8.838;2022-11-12T12:55:53;8.73;;;3.60;;
32292;SDS011;43233;48.608;8.838;2022-11-12T13:09:32;3.50;;;3.20;;
32292;SDS011;43233;48.608;8.838;2022-11-12T13:32:52;4.10;;;3.03;;
32292;SDS011;43233;48.608;8.838;2022-11-12T13:43:37;6.33;;;5.07;;
32292;SDS011;43233;48.608;8.838;2022-11-12T13:45:47;3.70;;;3.43;;
32292;SDS011;43233;48.608;8.838;2022-11-12T13:50:49;7.40;;;3.40;;
32292;SDS011;43233;48.608;8.838;2022-11-12T13:53:18;3.47;;;3.17;;
32292;SDS011;43233;48.608;8.838;2022-11-12T13:55:50;12.83;;;8.37;;
32292;SDS011;43233;48.608;8.838;2022-11-12T13:58:27;10.03;;;7.30;;
32292;SDS011;43233;48.608;8.838;2022-11-12T14:00:55;6.03;;;5.37;;
32292;SDS011;43233;48.608;8.838;2022-11-12T14:03:25;8.00;;;7.20;;
32292;SDS011;43233;48.608;8.838;2022-11-12T14:06:15;11.87;;;7.70;;
32292;SDS011;43233;48.608;8.838;2022-11-12T14:09:19;6.90;;;6.00;;
32292;SDS011;43233;48.608;8.838;2022-11-12T14:22:43;6.30;;;5.30;;
32292;SDS011;43233;48.608;8.838;2022-11-12T14:25:30;9.50;;;5.13;;
32292;SDS011;43233;48.608;8.838;2022-11-12T14:27:55;5.97;;;5.37;;
32292;SDS011;43233;48.608;8.838;2022-11-12T14:30:22;9.87;;;5.70;;
32292;SDS011;43233;48.608;8.838;2022-11-12T14:32:56;7.37;;;5.70;;
32292;SDS011;43233;48.608;8.838;2022-11-12T14:37:50;5.47;;;4.97;;
32292;SDS011;43233;48.608;8.838;2022-11-12T14:40:20;6.30;;;5.73;;
32292;SDS011;43233;48.608;8.838;2022-11-12T14:42:48;4.70;;;4.30;;
32292;SDS011;43233;48.608;8.838;2022-11-12T14:45:14;5.27;;;4.80;;
32292;SDS011;43233;48.608;8.838;2022-11-12T14:47:42;6.30;;;5.27;;
32292;SDS011;43233;48.608;8.838;2022-11-12T14:50:15;6.90;;;6.00;;
32292;SDS011;43233;48.608;8.838;2022-11-12T14:52:43;5.27;;;4.77;;
32292;SDS011;43233;48.608;8.838;2022-11-12T14:55:13;6.63;;;5.00;;
32292;SDS011;43233;48.608;8.838;2022-11-12T14:57:42;8.30;;;5.10;;
32292;SDS011;43233;48.608;8.838;2022-11-12T15:00:34;7.30;;;5.00;;
32292;SDS011;43233;48.608;8.838;2022-11-12T15:03:03;5.87;;;4.70;;
32292;SDS011;43233;48.608;8.838;2022-11-12T15:05:29;5.00;;;4.50;;
32292;SDS011;43233;48.608;8.838;2022-11-12T15:15:39;11.40;;;8.77;;
32292;SDS011;43233;48.608;8.838;2022-11-12T15:18:26;12.70;;;8.37;;
32292;SDS011;43233;48.608;8.838;2022-11-12T15:21:05;11.57;;;7.93;;
32292;SDS011;43233;48.608;8.838;2022-11-12T15:23:45;6.53;;;5.47;;
32292;SDS011;43233;48.608;8.838;2022-11-12T15:26:33;6.90;;;5.60;;
32292;SDS011;43233;48.608;8.838;2022-11-12T15:31:42;5.43;;;4.90;;
32292;SDS011;43233;48.608;8.838;2022-11-12T15:34:43;9.17;;;6.93;;
32292;SDS011;43233;48.608;8.838;2022-11-12T15:37:07;12.63;;;8.50;;
32292;SDS011;43233;48.608;8.838;2022-11-12T15:42:38;6.83;;;5.73;;
32292;SDS011;43233;48.608;8.838;2022-11-12T15:45:09;6.70;;;5.93;;
32292;SDS011;43233;48.608;8.838;2022-11-12T15:47:39;8.80;;;6.03;;
32292;SDS011;43233;48.608;8.838;2022-11-12T15:50:13;8.70;;;6.70;;
32292;SDS011;43233;48.608;8.838;2022-11-12T15:52:46;10.23;;;7.73;;
32292;SDS011;43233;48.608;8.838;2022-11-12T15:55:12;12.90;;;9.30;;
32292;SDS011;43233;48.608;8.838;2022-11-12T15:57:40;12.50;;;9.57;;
32292;SDS011;43233;48.608;8.838;2022-11-12T16:00:15;15.73;;;11.43;;
32292;SDS011;43233;48.608;8.838;2022-11-12T16:03:13;18.47;;;11.17;;
32292;SDS011;43233;48.608;8.838;2022-11-12T16:05:41;19.13;;;11.73;;
32292;SDS011;43233;48.608;8.838;2022-11-12T16:08:07;18.23;;;12.43;;
32292;SDS011;43233;48.608;8.838;2022-11-12T16:10:33;15.30;;;11.43;;
32292;SDS011;43233;48.608;8.838;2022-11-12T16:13:00;19.53;;;13.20;;
32292;SDS011;43233;48.608;8.838;2022-11-12T16:15:27;13.80;;;10.97;;
32292;SDS011;43233;48.608;8.838;2022-11-12T16:17:53;12.43;;;10.43;;
32292;SDS011;43233;48.608;8.838;2022-11-12T16:20:25;19.63;;;13.37;;
32292;SDS011;43233;48.608;8.838;2022-11-12T16:22:58;16.40;;;12.17;;
32292;SDS011;43233;48.608;8.838;2022-11-12T16:25:28;14.90;;;11.50;;
32292;SDS011;43233;48.608;8.838;2022-11-12T16:27:55;16.00;;;11.93;;
32292;SDS011;43233;48.608;8.838;2022-11-12T16:30:23;15.97;;;12.13;;
32292;SDS011;43233;48.608;8.838;2022-11-12T16:32:51;20.23;;;11.33;;
32292;SDS011;43233;48.608;8.838;2022-11-12T16:35:17;15.73;;;11.33;;
32292;SDS011;43233;48.608;8.838;2022-11-12T16:37:43;18.07;;;12.57;;
32292;SDS011;43233;48.608;8.838;2022-11-12T16:40:11;24.80;;;15.37;;
32292;SDS011;43233;48.608;8.838;2022-11-12T16:42:41;24.67;;;13.97;;
32292;SDS011;43233;48.608;8.838;2022-11-12T16:45:13;20.13;;;13.03;;
32292;SDS011;43233;48.608;8.838;2022-11-12T16:47:47;19.27;;;13.23;;
32292;SDS011;43233;48.608;8.838;2022-11-12T16:50:15;22.10;;;13.20;;
32292;SDS011;43233;48.608;8.838;2022-11-12T16:52:43;19.83;;;12.50;;
32292;SDS011;43233;48.608;8.838;2022-11-12T16:55:09;51.03;;;22.40;;
32292;SDS011;43233;48.608;8.838;2022-11-12T16:57:35;27.93;;;15.93;;
32292;SDS011;43233;48.608;8.838;2022-11-12T17:00:01;21.30;;;14.87;;
32292;SDS011;43233;48.608;8.838;2022-11-12T17:02:28;21.70;;;13.73;;
32292;SDS011;43233;48.608;8.838;2022-11-12T17:04:54;18.07;;;13.17;;
32292;SDS011;43233;48.608;8.838;2022-11-12T17:07:19;30.20;;;17.07;;
32292;SDS011;43233;48.608;8.838;2022-11-12T17:09:45;35.63;;;18.67;;
32292;SDS011;43233;48.608;8.838;2022-11-12T17:12:11;32.83;;;19.80;;
32292;SDS011;43233;48.608;8.838;2022-11-12T17:14:36;30.97;;;19.93;;
32292;SDS011;43233;48.608;8.838;2022-11-12T17:17:02;37.63;;;23.33;;
32292;SDS011;43233;48.608;8.838;2022-11-12T17:19:27;39.93;;;25.73;;
32292;SDS011;43233;48.608;8.838;2022-11-12T17:21:53;49.87;;;30.10;;
32292;SDS011;43233;48.608;8.838;2022-11-12T17:24:18;36.83;;;24.17;;